MSC Geneva — CQFQ — position and weather

sailwx.info

Track history (hours):
 
Tides and Currents Weather Stations Pressure Air Temp Water Temp Dewpoint Dewpoint Depression Visibility Wind Speed Wind Dir Waves Ship Positions

MSC Geneva

Last reported at 2017-Oct-20 07:00 UTC. Time now 2017-Oct-20 10:59 UTC.
Position N 34°30' E 028°00'.

Length 282 m; draft 10.9 m.

Type: Ship. MMSI: 255805618.

Wind from 310 at 7 knots

Barometer 1018.0 mb
Air temperature 23.0 ° C
Visibility: greater than 27.0 NM
Dewpoint 16.9 ° C
Water temperature 20.0 ° C

Date/timePositionNaut miles runAvg speedWind from/ knotsBaromVisibWave heightAir tempDewpointWater temp
2017-Oct-20 07:00N 34°30' E 028°00'10915.6 310 / 71018.027.0 23.016.920.0
2017-Oct-20 00:00N 34°36' E 025°48'25414.9 280 / 71018.010.8 21.014.723.0
2017-Oct-19 07:00N 35°12' E 020°42'28614.6 290 / 61019.027.0 23.016.923.0
2017-Oct-18 11:23N 36°12' E 014°58'715.5
2017-Oct-18 10:56N 36°14' E 014°50'715.4
2017-Oct-18 10:30N 36°15' E 014°42'815.2
2017-Oct-18 10:00N 36°16' E 014°32'815.0
2017-Oct-18 09:30N 36°17' E 014°23'815.1
2017-Oct-18 09:01N 36°20' E 014°15'815.3
2017-Oct-18 08:30N 36°22' E 014°05'715.0
2017-Oct-18 08:00N 36°24' E 013°57'2328.4
2017-Oct-18 08:00N 36°24' E 013°54'612.1 250 / 41022.027.0 23.016.923.0
2017-Oct-18 07:30N 36°27' E 013°48'815.1
2017-Oct-18 07:00N 36°29' E 013°39'918.5
2017-Oct-18 06:30N 36°34' E 013°29'817.1
2017-Oct-18 06:00N 36°38' E 013°20'714.8
2017-Oct-18 05:30N 36°41' E 013°11'714.8
2017-Oct-18 05:00N 36°43' E 013°02'814.9
2017-Oct-18 04:30N 36°46' E 012°54'714.6
2017-Oct-18 04:00N 36°48' E 012°45'714.4
2017-Oct-18 03:30N 36°51' E 012°37'914.5
2017-Oct-18 02:51N 36°54' E 012°26'4114.4
2017-Oct-18 00:00N 37°06' E 011°36'4715.4 090 / 111022.010.8 22.017.522.0
2017-Oct-17 20:56N 37°31' E 010°46'914.8
2017-Oct-17 20:21N 37°32' E 010°35'814.9
2017-Oct-17 19:50N 37°33' E 010°25'514.9
2017-Oct-17 19:30N 37°33' E 010°19'814.9
2017-Oct-17 18:59N 37°33' E 010°09'715.1
2017-Oct-17 18:30N 37°33' E 010°00'915.2
2017-Oct-17 17:56N 37°34' E 009°50'3015.0
2017-Oct-17 15:58N 37°36' E 009°12'12115.1
2017-Oct-17 08:00N 37°18' E 006°42'11514.4 160 / 81023.027.0 25.015.822.0
2017-Oct-17 00:00N 37°06' E 004°18'3914.9 170 / 81023.010.8 22.015.822.0
2017-Oct-16 21:23N 37°01' E 003°30'7414.5
2017-Oct-16 16:20N 36°50' E 001°59'914.9
2017-Oct-16 15:44N 36°48' E 001°48'6417.0
2017-Oct-16 12:00N 36°36' E 000°30'5814.5 050 / 141024.010.8 25.019.122.0
2017-Oct-16 08:00N 36°30' W 000°42'11314.1 070 / 181024.010.8 24.018.022.0
2017-Oct-16 00:00N 36°12' W 003°00'10415.7 080 / 201023.0 5.4 22.017.520.0
2017-Oct-15 17:24N 35°60' W 005°08'616.3
2017-Oct-15 17:01N 35°58' W 005°15'917.8
2017-Oct-15 16:31N 35°57' W 005°26'4915.5
2017-Oct-15 13:20N 35°52' W 006°27'514.4
2017-Oct-15 13:00N 35°53' W 006°32'714.2
2017-Oct-15 12:30N 35°53' W 006°41'713.8
2017-Oct-15 12:00N 35°54' W 006°50'713.6
2017-Oct-15 11:30N 35°54' W 006°58'714.0
2017-Oct-15 11:00N 35°55' W 007°07'714.6
2017-Oct-15 10:30N 35°58' W 007°15'714.9
2017-Oct-15 10:00N 36°00' W 007°24'714.9
2017-Oct-15 09:30N 36°03' W 007°32'714.7
2017-Oct-15 09:00N 36°06' W 007°41'714.9
2017-Oct-15 08:30N 36°08' W 007°49'715.0
2017-Oct-15 08:00N 36°11' W 007°58'714.9
2017-Oct-15 07:30N 36°13' W 008°07'714.7
2017-Oct-15 07:00N 36°16' W 008°15'714.8
2017-Oct-15 06:30N 36°18' W 008°24'714.3
2017-Oct-15 06:00N 36°21' W 008°32'713.8
2017-Oct-15 05:30N 36°23' W 008°40'714.1
2017-Oct-15 05:00N 36°25' W 008°49'714.2
2017-Oct-15 04:30N 36°28' W 008°57'815.2
2017-Oct-15 04:00N 36°30' W 009°06'714.9
2017-Oct-15 03:30N 36°32' W 009°15'714.1
2017-Oct-15 03:00N 36°36' W 009°22'714.6
2017-Oct-15 02:30N 36°41' W 009°28'714.3
2017-Oct-15 02:00N 36°47' W 009°34'714.5
2017-Oct-15 01:30N 36°54' W 009°36'714.6
2017-Oct-15 01:01N 37°01' W 009°38'714.5
2017-Oct-15 00:30N 37°08' W 009°39'714.6
2017-Oct-15 00:00N 37°16' W 009°41'714.5
2017-Oct-14 23:30N 37°23' W 009°43'714.3
2017-Oct-14 23:01N 37°30' W 009°44'714.3
2017-Oct-14 22:30N 37°37' W 009°46'714.2
2017-Oct-14 22:00N 37°44' W 009°49'714.5
2017-Oct-14 21:30N 37°51' W 009°51'714.6
2017-Oct-14 21:00N 37°58' W 009°54'714.9
2017-Oct-14 20:30N 38°05' W 009°56'714.3
2017-Oct-14 20:01N 38°12' W 009°59'714.5
2017-Oct-14 19:31N 38°19' W 010°01'714.4
2017-Oct-14 19:00N 38°26' W 010°03'714.7
2017-Oct-14 18:31N 38°33' W 010°05'714.5
2017-Oct-14 18:00N 38°40' W 010°08'714.1
2017-Oct-14 17:30N 38°47' W 010°08'713.8
2017-Oct-14 17:00N 38°54' W 010°08'714.3
2017-Oct-14 16:30N 39°01' W 010°07'714.4
2017-Oct-14 16:00N 39°08' W 010°07'714.4
2017-Oct-14 15:30N 39°15' W 010°07'714.4
2017-Oct-14 15:00N 39°23' W 010°07'714.4
2017-Oct-14 14:30N 39°30' W 010°08'714.5
2017-Oct-14 14:00N 39°37' W 010°08'4714.6
2017-Oct-14 10:47N 40°24' W 010°07'415.0
2017-Oct-14 10:30N 40°28' W 010°07'4014.8
2017-Oct-14 07:48N 41°08' W 010°09'915.0
2017-Oct-14 07:13N 41°17' W 010°09'315.5
2017-Oct-14 07:00N 41°20' W 010°09'1418.8
2017-Oct-14 06:16N 41°34' W 010°09'415.8
2017-Oct-14 06:00N 41°38' W 010°09'7614.6
2017-Oct-14 00:47N 42°54' W 010°08'4714.5
2017-Oct-13 21:34N 43°39' W 009°52'514.6
2017-Oct-13 21:15N 43°44' W 009°50'414.5
2017-Oct-13 20:57N 43°48' W 009°47'2814.8
2017-Oct-13 19:02N 44°12' W 009°28'015.1
2017-Oct-13 19:00N 44°12' W 009°27'31815.0
2017-Oct-12 21:52N 48°53' W 005°50'513.1
2017-Oct-12 21:28N 48°57' W 005°45'813.4
2017-Oct-12 20:53N 49°00' W 005°34'613.3
2017-Oct-12 20:26N 49°03' W 005°26'613.7
2017-Oct-12 19:59N 49°04' W 005°17'713.9
2017-Oct-12 19:30N 49°07' W 005°07'713.8
2017-Oct-12 19:00N 49°11' W 004°58'814.1
2017-Oct-12 18:27N 49°15' W 004°49'714.4
2017-Oct-12 17:56N 49°20' W 004°40'714.9
2017-Oct-12 17:27N 49°24' W 004°30'1015.1
2017-Oct-12 16:49N 49°29' W 004°18'615.5
2017-Oct-12 16:27N 49°31' W 004°10'715.7
2017-Oct-12 16:00N 49°35' W 004°01'815.6
2017-Oct-12 15:28N 49°39' W 003°49'715.5
2017-Oct-12 15:00N 49°42' W 003°40'1015.7
2017-Oct-12 14:21N 49°47' W 003°26'615.4
2017-Oct-12 13:58N 49°50' W 003°17'715.1
2017-Oct-12 13:30N 49°53' W 003°08'715.0
2017-Oct-12 13:00N 49°57' W 002°58'815.1
2017-Oct-12 12:30N 49°59' W 002°47'814.7
2017-Oct-12 11:59N 50°01' W 002°35'8914.9
2017-Oct-12 06:03N 49°36' W 000°24'215.7
2017-Oct-12 05:57N 49°36' W 000°21'715.1
2017-Oct-12 05:30N 49°33' W 000°12'611.9
2017-Oct-12 05:00N 49°31' W 000°03'713.4
2017-Oct-12 04:30N 49°28' E 000°06'2 3.0
2017-Oct-12 04:00N 49°28' E 000°08'0 0.0
2017-Oct-12 03:30N 49°28' E 000°08'0 0.0
2017-Oct-12 03:00N 49°28' E 000°08'0 0.0
2017-Oct-12 02:30N 49°28' E 000°08'0 0.0
2017-Oct-12 02:00N 49°28' E 000°08'0 0.0
2017-Oct-12 01:29N 49°28' E 000°08'0 0.0
2017-Oct-12 00:59N 49°28' E 000°08'0 0.0
2017-Oct-12 00:29N 49°28' E 000°08'0 0.0
2017-Oct-11 23:59N 49°28' E 000°08'0 0.0
2017-Oct-11 23:28N 49°28' E 000°08'0 0.0
2017-Oct-11 22:58N 49°28' E 000°08'0 0.0
2017-Oct-11 22:28N 49°28' E 000°08'0 0.0
2017-Oct-11 21:58N 49°28' E 000°08'0 0.0
2017-Oct-11 21:28N 49°28' E 000°08'0 0.0
2017-Oct-11 21:00N 49°28' E 000°08'0 0.0
2017-Oct-11 20:30N 49°28' E 000°08'0 0.0
2017-Oct-11 20:00N 49°28' E 000°08'0 0.0
2017-Oct-11 19:30N 49°28' E 000°08'0 0.0
2017-Oct-11 19:00N 49°28' E 000°08'0 0.0
2017-Oct-11 18:29N 49°28' E 000°08'0 0.0
2017-Oct-11 17:59N 49°28' E 000°08'0 0.0
2017-Oct-11 17:29N 49°28' E 000°08'0 0.0
2017-Oct-11 16:59N 49°28' E 000°08'0 0.0
2017-Oct-11 00:00N 49°28' E 000°08'0 0.0
2017-Oct-10 23:30N 49°28' E 000°08'0 0.0
2017-Oct-10 23:00N 49°28' E 000°08'0 0.0
2017-Oct-10 22:30N 49°28' E 000°08'0 0.0
2017-Oct-10 22:00N 49°28' E 000°08'0 0.0
2017-Oct-10 21:30N 49°28' E 000°08'1 2.3
2017-Oct-10 21:00N 49°28' E 000°07'713.1
2017-Oct-10 20:31N 49°31' W 000°02'612.2
2017-Oct-10 20:01N 49°33' W 000°11'713.9
2017-Oct-10 19:31N 49°38' W 000°19'1 0.8
2017-Oct-10 17:42N 49°39' W 000°18'0 1.3
2017-Oct-10 17:30N 49°39' W 000°18'1 1.3
2017-Oct-10 17:00N 49°39' W 000°17'3 6.7
2017-Oct-10 16:30N 49°41' W 000°13'5 9.8
2017-Oct-10 16:00N 49°46' W 000°12'510.6
2017-Oct-10 15:30N 49°51' W 000°11'2611.5
2017-Oct-10 13:13N 50°17' W 000°05'312.9
2017-Oct-10 13:00N 50°20' W 000°04'713.6
2017-Oct-10 12:30N 50°27' W 000°02'612.1
2017-Oct-10 12:00N 50°31' E 000°05'611.2
2017-Oct-10 11:30N 50°31' E 000°14'611.7
2017-Oct-10 11:00N 50°33' E 000°22'611.1
2017-Oct-10 10:30N 50°34' E 000°31'510.6
2017-Oct-10 10:00N 50°36' E 000°39'510.6
2017-Oct-10 09:30N 50°39' E 000°45'611.0
2017-Oct-10 09:00N 50°42' E 000°52'611.7
2017-Oct-10 08:30N 50°46' E 001°00'612.4
2017-Oct-10 08:00N 50°49' E 001°09'612.6
2017-Oct-10 07:30N 50°53' E 001°17'  
Track history (hours):
 
Tides and Currents Weather Stations Pressure Air Temp Water Temp Dewpoint Dewpoint Depression Visibility Wind Speed Wind Dir Waves Ship Positions

MSC Geneva

Last reported at 2017-Oct-20 07:00 UTC. Time now 2017-Oct-20 10:59 UTC.
Position N 34°30' E 028°00'.

Length 282 m; draft 10.9 m.

Type: Ship. MMSI: 255805618.

Wind from 310 at 7 knots

Barometer 1018.0 mb
Air temperature 23.0 ° C
Visibility: greater than 27.0 NM
Dewpoint 16.9 ° C
Water temperature 20.0 ° C

Date/timePositionNaut miles runAvg speedWind from/ knotsBaromVisibWave heightAir tempDewpointWater temp
2017-Oct-20 07:00N 34°30' E 028°00'10915.6 310 / 71018.027.0 23.016.920.0
2017-Oct-20 00:00N 34°36' E 025°48'25414.9 280 / 71018.010.8 21.014.723.0
2017-Oct-19 07:00N 35°12' E 020°42'28614.6 290 / 61019.027.0 23.016.923.0
2017-Oct-18 11:23N 36°12' E 014°58'715.5
2017-Oct-18 10:56N 36°14' E 014°50'715.4
2017-Oct-18 10:30N 36°15' E 014°42'815.2
2017-Oct-18 10:00N 36°16' E 014°32'815.0
2017-Oct-18 09:30N 36°17' E 014°23'815.1
2017-Oct-18 09:01N 36°20' E 014°15'815.3
2017-Oct-18 08:30N 36°22' E 014°05'715.0
2017-Oct-18 08:00N 36°24' E 013°57'2328.4
2017-Oct-18 08:00N 36°24' E 013°54'612.1 250 / 41022.027.0 23.016.923.0
2017-Oct-18 07:30N 36°27' E 013°48'815.1
2017-Oct-18 07:00N 36°29' E 013°39'918.5
2017-Oct-18 06:30N 36°34' E 013°29'817.1
2017-Oct-18 06:00N 36°38' E 013°20'714.8
2017-Oct-18 05:30N 36°41' E 013°11'714.8
2017-Oct-18 05:00N 36°43' E 013°02'814.9
2017-Oct-18 04:30N 36°46' E 012°54'714.6
2017-Oct-18 04:00N 36°48' E 012°45'714.4
2017-Oct-18 03:30N 36°51' E 012°37'914.5
2017-Oct-18 02:51N 36°54' E 012°26'4114.4
2017-Oct-18 00:00N 37°06' E 011°36'4715.4 090 / 111022.010.8 22.017.522.0
2017-Oct-17 20:56N 37°31' E 010°46'914.8
2017-Oct-17 20:21N 37°32' E 010°35'814.9
2017-Oct-17 19:50N 37°33' E 010°25'514.9
2017-Oct-17 19:30N 37°33' E 010°19'814.9
2017-Oct-17 18:59N 37°33' E 010°09'715.1
2017-Oct-17 18:30N 37°33' E 010°00'915.2
2017-Oct-17 17:56N 37°34' E 009°50'3015.0
2017-Oct-17 15:58N 37°36' E 009°12'12115.1
2017-Oct-17 08:00N 37°18' E 006°42'11514.4 160 / 81023.027.0 25.015.822.0
2017-Oct-17 00:00N 37°06' E 004°18'3914.9 170 / 81023.010.8 22.015.822.0
2017-Oct-16 21:23N 37°01' E 003°30'7414.5
2017-Oct-16 16:20N 36°50' E 001°59'914.9
2017-Oct-16 15:44N 36°48' E 001°48'6417.0
2017-Oct-16 12:00N 36°36' E 000°30'5814.5 050 / 141024.010.8 25.019.122.0
2017-Oct-16 08:00N 36°30' W 000°42'11314.1 070 / 181024.010.8 24.018.022.0
2017-Oct-16 00:00N 36°12' W 003°00'10415.7 080 / 201023.0 5.4 22.017.520.0
2017-Oct-15 17:24N 35°60' W 005°08'616.3
2017-Oct-15 17:01N 35°58' W 005°15'917.8
2017-Oct-15 16:31N 35°57' W 005°26'4915.5
2017-Oct-15 13:20N 35°52' W 006°27'514.4
2017-Oct-15 13:00N 35°53' W 006°32'714.2
2017-Oct-15 12:30N 35°53' W 006°41'713.8
2017-Oct-15 12:00N 35°54' W 006°50'713.6
2017-Oct-15 11:30N 35°54' W 006°58'714.0
2017-Oct-15 11:00N 35°55' W 007°07'714.6
2017-Oct-15 10:30N 35°58' W 007°15'714.9
2017-Oct-15 10:00N 36°00' W 007°24'714.9
2017-Oct-15 09:30N 36°03' W 007°32'714.7
2017-Oct-15 09:00N 36°06' W 007°41'714.9
2017-Oct-15 08:30N 36°08' W 007°49'715.0
2017-Oct-15 08:00N 36°11' W 007°58'714.9
2017-Oct-15 07:30N 36°13' W 008°07'714.7
2017-Oct-15 07:00N 36°16' W 008°15'714.8
2017-Oct-15 06:30N 36°18' W 008°24'714.3
2017-Oct-15 06:00N 36°21' W 008°32'713.8
2017-Oct-15 05:30N 36°23' W 008°40'714.1
2017-Oct-15 05:00N 36°25' W 008°49'714.2
2017-Oct-15 04:30N 36°28' W 008°57'815.2
2017-Oct-15 04:00N 36°30' W 009°06'714.9
2017-Oct-15 03:30N 36°32' W 009°15'714.1
2017-Oct-15 03:00N 36°36' W 009°22'714.6
2017-Oct-15 02:30N 36°41' W 009°28'714.3
2017-Oct-15 02:00N 36°47' W 009°34'714.5
2017-Oct-15 01:30N 36°54' W 009°36'714.6
2017-Oct-15 01:01N 37°01' W 009°38'714.5
2017-Oct-15 00:30N 37°08' W 009°39'714.6
2017-Oct-15 00:00N 37°16' W 009°41'714.5
2017-Oct-14 23:30N 37°23' W 009°43'714.3
2017-Oct-14 23:01N 37°30' W 009°44'714.3
2017-Oct-14 22:30N 37°37' W 009°46'714.2
2017-Oct-14 22:00N 37°44' W 009°49'714.5
2017-Oct-14 21:30N 37°51' W 009°51'714.6
2017-Oct-14 21:00N 37°58' W 009°54'714.9
2017-Oct-14 20:30N 38°05' W 009°56'714.3
2017-Oct-14 20:01N 38°12' W 009°59'714.5
2017-Oct-14 19:31N 38°19' W 010°01'714.4
2017-Oct-14 19:00N 38°26' W 010°03'714.7
2017-Oct-14 18:31N 38°33' W 010°05'714.5
2017-Oct-14 18:00N 38°40' W 010°08'714.1
2017-Oct-14 17:30N 38°47' W 010°08'713.8
2017-Oct-14 17:00N 38°54' W 010°08'714.3
2017-Oct-14 16:30N 39°01' W 010°07'714.4
2017-Oct-14 16:00N 39°08' W 010°07'714.4
2017-Oct-14 15:30N 39°15' W 010°07'714.4
2017-Oct-14 15:00N 39°23' W 010°07'714.4
2017-Oct-14 14:30N 39°30' W 010°08'714.5
2017-Oct-14 14:00N 39°37' W 010°08'4714.6
2017-Oct-14 10:47N 40°24' W 010°07'415.0
2017-Oct-14 10:30N 40°28' W 010°07'4014.8
2017-Oct-14 07:48N 41°08' W 010°09'915.0
2017-Oct-14 07:13N 41°17' W 010°09'315.5
2017-Oct-14 07:00N 41°20' W 010°09'1418.8
2017-Oct-14 06:16N 41°34' W 010°09'415.8
2017-Oct-14 06:00N 41°38' W 010°09'7614.6
2017-Oct-14 00:47N 42°54' W 010°08'4714.5
2017-Oct-13 21:34N 43°39' W 009°52'514.6
2017-Oct-13 21:15N 43°44' W 009°50'414.5
2017-Oct-13 20:57N 43°48' W 009°47'2814.8
2017-Oct-13 19:02N 44°12' W 009°28'015.1
2017-Oct-13 19:00N 44°12' W 009°27'31815.0
2017-Oct-12 21:52N 48°53' W 005°50'513.1
2017-Oct-12 21:28N 48°57' W 005°45'813.4
2017-Oct-12 20:53N 49°00' W 005°34'613.3
2017-Oct-12 20:26N 49°03' W 005°26'613.7
2017-Oct-12 19:59N 49°04' W 005°17'713.9
2017-Oct-12 19:30N 49°07' W 005°07'713.8
2017-Oct-12 19:00N 49°11' W 004°58'814.1
2017-Oct-12 18:27N 49°15' W 004°49'714.4
2017-Oct-12 17:56N 49°20' W 004°40'714.9
2017-Oct-12 17:27N 49°24' W 004°30'1015.1
2017-Oct-12 16:49N 49°29' W 004°18'615.5
2017-Oct-12 16:27N 49°31' W 004°10'715.7
2017-Oct-12 16:00N 49°35' W 004°01'815.6
2017-Oct-12 15:28N 49°39' W 003°49'715.5
2017-Oct-12 15:00N 49°42' W 003°40'1015.7
2017-Oct-12 14:21N 49°47' W 003°26'615.4
2017-Oct-12 13:58N 49°50' W 003°17'715.1
2017-Oct-12 13:30N 49°53' W 003°08'715.0
2017-Oct-12 13:00N 49°57' W 002°58'815.1
2017-Oct-12 12:30N 49°59' W 002°47'814.7
2017-Oct-12 11:59N 50°01' W 002°35'8914.9
2017-Oct-12 06:03N 49°36' W 000°24'215.7
2017-Oct-12 05:57N 49°36' W 000°21'715.1
2017-Oct-12 05:30N 49°33' W 000°12'611.9
2017-Oct-12 05:00N 49°31' W 000°03'713.4
2017-Oct-12 04:30N 49°28' E 000°06'2 3.0
2017-Oct-12 04:00N 49°28' E 000°08'0 0.0
2017-Oct-12 03:30N 49°28' E 000°08'0 0.0
2017-Oct-12 03:00N 49°28' E 000°08'0 0.0
2017-Oct-12 02:30N 49°28' E 000°08'0 0.0
2017-Oct-12 02:00N 49°28' E 000°08'0 0.0
2017-Oct-12 01:29N 49°28' E 000°08'0 0.0
2017-Oct-12 00:59N 49°28' E 000°08'0 0.0
2017-Oct-12 00:29N 49°28' E 000°08'0 0.0
2017-Oct-11 23:59N 49°28' E 000°08'0 0.0
2017-Oct-11 23:28N 49°28' E 000°08'0 0.0
2017-Oct-11 22:58N 49°28' E 000°08'0 0.0
2017-Oct-11 22:28N 49°28' E 000°08'0 0.0
2017-Oct-11 21:58N 49°28' E 000°08'0 0.0
2017-Oct-11 21:28N 49°28' E 000°08'0 0.0
2017-Oct-11 21:00N 49°28' E 000°08'0 0.0
2017-Oct-11 20:30N 49°28' E 000°08'0 0.0
2017-Oct-11 20:00N 49°28' E 000°08'0 0.0
2017-Oct-11 19:30N 49°28' E 000°08'0 0.0
2017-Oct-11 19:00N 49°28' E 000°08'0 0.0
2017-Oct-11 18:29N 49°28' E 000°08'0 0.0
2017-Oct-11 17:59N 49°28' E 000°08'0 0.0
2017-Oct-11 17:29N 49°28' E 000°08'0 0.0
2017-Oct-11 16:59N 49°28' E 000°08'0 0.0
2017-Oct-11 00:00N 49°28' E 000°08'0 0.0
2017-Oct-10 23:30N 49°28' E 000°08'0 0.0
2017-Oct-10 23:00N 49°28' E 000°08'0 0.0
2017-Oct-10 22:30N 49°28' E 000°08'0 0.0
2017-Oct-10 22:00N 49°28' E 000°08'0 0.0
2017-Oct-10 21:30N 49°28' E 000°08'1 2.3
2017-Oct-10 21:00N 49°28' E 000°07'713.1
2017-Oct-10 20:31N 49°31' W 000°02'612.2
2017-Oct-10 20:01N 49°33' W 000°11'713.9
2017-Oct-10 19:31N 49°38' W 000°19'1 0.8
2017-Oct-10 17:42N 49°39' W 000°18'0 1.3
2017-Oct-10 17:30N 49°39' W 000°18'1 1.3
2017-Oct-10 17:00N 49°39' W 000°17'3 6.7
2017-Oct-10 16:30N 49°41' W 000°13'5 9.8
2017-Oct-10 16:00N 49°46' W 000°12'510.6
2017-Oct-10 15:30N 49°51' W 000°11'2611.5
2017-Oct-10 13:13N 50°17' W 000°05'312.9
2017-Oct-10 13:00N 50°20' W 000°04'713.6
2017-Oct-10 12:30N 50°27' W 000°02'612.1
2017-Oct-10 12:00N 50°31' E 000°05'611.2
2017-Oct-10 11:30N 50°31' E 000°14'611.7
2017-Oct-10 11:00N 50°33' E 000°22'611.1
2017-Oct-10 10:30N 50°34' E 000°31'510.6
2017-Oct-10 10:00N 50°36' E 000°39'510.6
2017-Oct-10 09:30N 50°39' E 000°45'611.0
2017-Oct-10 09:00N 50°42' E 000°52'611.7
2017-Oct-10 08:30N 50°46' E 001°00'612.4
2017-Oct-10 08:00N 50°49' E 001°09'612.6
2017-Oct-10 07:30N 50°53' E 001°17'  

Dump ship's entire track history